sensor_id;sensor_type;location;lat;lon;timestamp;temperature;humidity
46676;DHT22;32412;51.478;5.694;2023-04-03T00:00:09;1.50;99.90
46676;DHT22;32412;51.478;5.694;2023-04-03T00:02:35;1.40;99.90
46676;DHT22;32412;51.478;5.694;2023-04-03T00:05:01;1.40;99.90
46676;DHT22;32412;51.478;5.694;2023-04-03T00:07:26;1.30;99.90
46676;DHT22;32412;51.478;5.694;2023-04-03T00:09:52;1.30;99.90
46676;DHT22;32412;51.478;5.694;2023-04-03T00:12:18;1.30;99.90
46676;DHT22;32412;51.478;5.694;2023-04-03T00:14:43;1.30;99.90
46676;DHT22;32412;51.478;5.694;2023-04-03T00:17:09;1.30;99.90
46676;DHT22;32412;51.478;5.694;2023-04-03T00:19:35;1.20;99.90
46676;DHT22;32412;51.478;5.694;2023-04-03T00:22:01;1.20;99.90
46676;DHT22;32412;51.478;5.694;2023-04-03T00:24:26;1.20;99.90
46676;DHT22;32412;51.478;5.694;2023-04-03T00:26:52;1.20;99.90
46676;DHT22;32412;51.478;5.694;2023-04-03T00:29:18;1.20;99.90
46676;DHT22;32412;51.478;5.694;2023-04-03T00:31:43;1.10;99.90
46676;DHT22;32412;51.478;5.694;2023-04-03T00:34:09;1.20;99.90
46676;DHT22;32412;51.478;5.694;2023-04-03T00:36:35;1.10;99.90
46676;DHT22;32412;51.478;5.694;2023-04-03T00:39:01;1.10;99.90
46676;DHT22;32412;51.478;5.694;2023-04-03T00:41:26;1.00;99.90
46676;DHT22;32412;51.478;5.694;2023-04-03T00:43:52;1.00;99.90
46676;DHT22;32412;51.478;5.694;2023-04-03T00:46:18;1.00;99.90
46676;DHT22;32412;51.478;5.694;2023-04-03T00:48:45;1.00;99.90
46676;DHT22;32412;51.478;5.694;2023-04-03T00:51:18;1.00;99.90
46676;DHT22;32412;51.478;5.694;2023-04-03T00:54:06;1.00;99.90
46676;DHT22;32412;51.478;5.694;2023-04-03T00:56:31;1.10;99.90
46676;DHT22;32412;51.478;5.694;2023-04-03T01:01:28;1.00;99.90
46676;DHT22;32412;51.478;5.694;2023-04-03T01:03:54;1.00;99.90
46676;DHT22;32412;51.478;5.694;2023-04-03T01:06:24;1.00;99.90
46676;DHT22;32412;51.478;5.694;2023-04-03T01:08:52;1.00;99.90
46676;DHT22;32412;51.478;5.694;2023-04-03T01:11:18;1.00;99.90
46676;DHT22;32412;51.478;5.694;2023-04-03T01:13:44;1.00;99.90
46676;DHT22;32412;51.478;5.694;2023-04-03T01:16:10;1.10;99.90
46676;DHT22;32412;51.478;5.694;2023-04-03T01:18:37;1.00;99.90
46676;DHT22;32412;51.478;5.694;2023-04-03T01:21:27;1.00;99.90
46676;DHT22;32412;51.478;5.694;2023-04-03T01:24:34;0.90;99.90
46676;DHT22;32412;51.478;5.694;2023-04-03T01:27:03;0.90;99.90
46676;DHT22;32412;51.478;5.694;2023-04-03T01:29:29;0.90;99.90
46676;DHT22;32412;51.478;5.694;2023-04-03T01:31:58;0.90;99.90
46676;DHT22;32412;51.478;5.694;2023-04-03T01:34:24;0.80;99.90
46676;DHT22;32412;51.478;5.694;2023-04-03T01:36:51;0.80;99.90
46676;DHT22;32412;51.478;5.694;2023-04-03T01:39:16;0.90;99.90
46676;DHT22;32412;51.478;5.694;2023-04-03T01:41:42;1.00;99.90
46676;DHT22;32412;51.478;5.694;2023-04-03T01:44:08;1.00;99.90
46676;DHT22;32412;51.478;5.694;2023-04-03T01:46:34;1.10;99.90
46676;DHT22;32412;51.478;5.694;2023-04-03T04:57:16;0.40;99.90
46676;DHT22;32412;51.478;5.694;2023-04-03T06:01:52;1.30;99.90
46676;DHT22;32412;51.478;5.694;2023-04-03T06:04:18;1.40;99.90
46676;DHT22;32412;51.478;5.694;2023-04-03T06:10:26;1.40;99.90
46676;DHT22;32412;51.478;5.694;2023-04-03T06:12:52;1.50;99.90
46676;DHT22;32412;51.478;5.694;2023-04-03T06:20:35;1.60;99.90
46676;DHT22;32412;51.478;5.694;2023-04-03T06:23:07;1.70;99.90
46676;DHT22;32412;51.478;5.694;2023-04-03T06:25:33;1.70;99.90
46676;DHT22;32412;51.478;5.694;2023-04-03T06:27:59;1.80;99.90
46676;DHT22;32412;51.478;5.694;2023-04-03T06:30:26;1.80;99.90
46676;DHT22;32412;51.478;5.694;2023-04-03T06:32:52;1.90;99.90
46676;DHT22;32412;51.478;5.694;2023-04-03T06:35:18;1.90;99.90
46676;DHT22;32412;51.478;5.694;2023-04-03T06:37:44;1.90;99.90
46676;DHT22;32412;51.478;5.694;2023-04-03T06:40:18;2.00;99.90
46676;DHT22;32412;51.478;5.694;2023-04-03T06:42:46;2.00;99.90
46676;DHT22;32412;51.478;5.694;2023-04-03T06:45:12;2.10;99.90
46676;DHT22;32412;51.478;5.694;2023-04-03T06:47:37;2.20;99.90
46676;DHT22;32412;51.478;5.694;2023-04-03T06:50:04;2.20;99.90
46676;DHT22;32412;51.478;5.694;2023-04-03T06:52:30;2.30;99.90
46676;DHT22;32412;51.478;5.694;2023-04-03T06:54:56;2.30;99.90
46676;DHT22;32412;51.478;5.694;2023-04-03T06:57:25;2.40;99.90
46676;DHT22;32412;51.478;5.694;2023-04-03T06:59:51;2.50;99.90
46676;DHT22;32412;51.478;5.694;2023-04-03T07:02:19;2.50;99.90
46676;DHT22;32412;51.478;5.694;2023-04-03T07:04:46;2.60;99.90
46676;DHT22;32412;51.478;5.694;2023-04-03T07:07:12;2.70;99.90
46676;DHT22;32412;51.478;5.694;2023-04-03T07:09:39;2.70;99.90
46676;DHT22;32412;51.478;5.694;2023-04-03T07:12:05;2.90;99.90
46676;DHT22;32412;51.478;5.694;2023-04-03T07:14:31;2.90;99.90
46676;DHT22;32412;51.478;5.694;2023-04-03T07:16:57;3.00;99.90
46676;DHT22;32412;51.478;5.694;2023-04-03T07:19:22;3.10;99.90
46676;DHT22;32412;51.478;5.694;2023-04-03T07:21:49;3.20;99.90
46676;DHT22;32412;51.478;5.694;2023-04-03T07:24:15;3.20;99.90
46676;DHT22;32412;51.478;5.694;2023-04-03T07:26:41;3.30;99.90
46676;DHT22;32412;51.478;5.694;2023-04-03T07:29:10;3.40;99.90
46676;DHT22;32412;51.478;5.694;2023-04-03T07:31:36;3.50;99.90
46676;DHT22;32412;51.478;5.694;2023-04-03T07:34:04;3.60;99.90
46676;DHT22;32412;51.478;5.694;2023-04-03T07:36:29;3.80;99.90
46676;DHT22;32412;51.478;5.694;2023-04-03T07:39:00;3.80;99.90
46676;DHT22;32412;51.478;5.694;2023-04-03T07:41:26;3.90;99.90
46676;DHT22;32412;51.478;5.694;2023-04-03T07:43:52;4.00;99.90
46676;DHT22;32412;51.478;5.694;2023-04-03T07:46:18;4.10;99.90
46676;DHT22;32412;51.478;5.694;2023-04-03T07:48:44;4.30;99.90
46676;DHT22;32412;51.478;5.694;2023-04-03T07:51:10;4.30;99.90
46676;DHT22;32412;51.478;5.694;2023-04-03T07:53:36;4.40;99.90
46676;DHT22;32412;51.478;5.694;2023-04-03T07:56:02;4.40;99.90
46676;DHT22;32412;51.478;5.694;2023-04-03T07:58:28;4.50;99.90
46676;DHT22;32412;51.478;5.694;2023-04-03T08:00:54;4.50;99.90
46676;DHT22;32412;51.478;5.694;2023-04-03T08:03:20;4.50;99.90
46676;DHT22;32412;51.478;5.694;2023-04-03T08:05:47;4.70;99.90
46676;DHT22;32412;51.478;5.694;2023-04-03T08:08:16;4.80;99.90
46676;DHT22;32412;51.478;5.694;2023-04-03T08:10:42;4.90;99.90
46676;DHT22;32412;51.478;5.694;2023-04-03T08:13:09;5.00;99.90
46676;DHT22;32412;51.478;5.694;2023-04-03T08:15:37;5.20;99.90
46676;DHT22;32412;51.478;5.694;2023-04-03T08:18:05;5.20;99.90
46676;DHT22;32412;51.478;5.694;2023-04-03T08:20:31;5.30;99.90
46676;DHT22;32412;51.478;5.694;2023-04-03T08:22:57;5.50;99.90
46676;DHT22;32412;51.478;5.694;2023-04-03T08:25:23;5.60;99.90
46676;DHT22;32412;51.478;5.694;2023-04-03T08:27:49;5.60;99.90
46676;DHT22;32412;51.478;5.694;2023-04-03T08:30:15;5.80;99.90
46676;DHT22;32412;51.478;5.694;2023-04-03T08:32:40;5.90;99.90
46676;DHT22;32412;51.478;5.694;2023-04-03T08:35:10;6.00;99.90
46676;DHT22;32412;51.478;5.694;2023-04-03T08:37:39;6.20;99.90
46676;DHT22;32412;51.478;5.694;2023-04-03T08:40:05;6.20;99.90
46676;DHT22;32412;51.478;5.694;2023-04-03T08:45:35;6.30;99.90
46676;DHT22;32412;51.478;5.694;2023-04-03T08:48:12;6.30;99.90
46676;DHT22;32412;51.478;5.694;2023-04-03T08:50:43;6.30;99.90
46676;DHT22;32412;51.478;5.694;2023-04-03T08:53:16;6.40;99.90
46676;DHT22;32412;51.478;5.694;2023-04-03T08:55:45;6.50;99.90
46676;DHT22;32412;51.478;5.694;2023-04-03T08:58:22;6.50;99.90
46676;DHT22;32412;51.478;5.694;2023-04-03T09:01:04;6.50;99.90
46676;DHT22;32412;51.478;5.694;2023-04-03T09:03:40;6.60;99.90
46676;DHT22;32412;51.478;5.694;2023-04-03T09:06:23;6.70;99.90
46676;DHT22;32412;51.478;5.694;2023-04-03T09:17:06;7.00;99.90
46676;DHT22;32412;51.478;5.694;2023-04-03T09:19:58;7.10;99.90
46676;DHT22;32412;51.478;5.694;2023-04-03T09:22:28;7.20;99.90
46676;DHT22;32412;51.478;5.694;2023-04-03T09:25:27;7.20;99.90
46676;DHT22;32412;51.478;5.694;2023-04-03T09:27:56;7.20;99.90
46676;DHT22;32412;51.478;5.694;2023-04-03T09:30:24;7.30;99.90
46676;DHT22;32412;51.478;5.694;2023-04-03T09:32:52;7.60;99.90
46676;DHT22;32412;51.478;5.694;2023-04-03T09:35:44;7.80;99.50
46676;DHT22;32412;51.478;5.694;2023-04-03T09:40:44;8.20;96.90
46676;DHT22;32412;51.478;5.694;2023-04-03T09:43:21;8.60;98.90
46676;DHT22;32412;51.478;5.694;2023-04-03T09:45:49;9.10;96.70
46676;DHT22;32412;51.478;5.694;2023-04-03T09:48:26;9.40;95.80
46676;DHT22;32412;51.478;5.694;2023-04-03T09:50:56;9.40;95.50
46676;DHT22;32412;51.478;5.694;2023-04-03T09:53:37;9.80;94.90
46676;DHT22;32412;51.478;5.694;2023-04-03T10:01:41;11.10;92.10
46676;DHT22;32412;51.478;5.694;2023-04-03T10:04:16;11.80;91.40
46676;DHT22;32412;51.478;5.694;2023-04-03T10:06:45;12.00;90.00
46676;DHT22;32412;51.478;5.694;2023-04-03T10:14:37;12.00;86.40
46676;DHT22;32412;51.478;5.694;2023-04-03T10:19:53;12.20;87.70
46676;DHT22;32412;51.478;5.694;2023-04-03T10:31:53;12.50;83.20
46676;DHT22;32412;51.478;5.694;2023-04-03T10:34:33;13.00;83.30
46676;DHT22;32412;51.478;5.694;2023-04-03T10:37:27;13.40;83.40
46676;DHT22;32412;51.478;5.694;2023-04-03T10:45:43;13.30;80.30
46676;DHT22;32412;51.478;5.694;2023-04-03T10:57:18;14.00;77.00
46676;DHT22;32412;51.478;5.694;2023-04-03T11:03:45;14.20;76.00
46676;DHT22;32412;51.478;5.694;2023-04-03T11:06:07;14.00;74.10
46676;DHT22;32412;51.478;5.694;2023-04-03T11:11:26;14.60;76.20
46676;DHT22;32412;51.478;5.694;2023-04-03T11:14:05;14.40;72.00
46676;DHT22;32412;51.478;5.694;2023-04-03T11:23:24;15.30;74.20
46676;DHT22;32412;51.478;5.694;2023-04-03T11:26:12;15.30;71.40
46676;DHT22;32412;51.478;5.694;2023-04-03T11:35:13;15.80;73.00
46676;DHT22;32412;51.478;5.694;2023-04-03T11:41:26;16.60;72.80
46676;DHT22;32412;51.478;5.694;2023-04-03T11:56:29;15.70;69.90
46676;DHT22;32412;51.478;5.694;2023-04-03T12:52:25;15.50;72.80
46676;DHT22;32412;51.478;5.694;2023-04-03T12:54:56;15.30;71.70
46676;DHT22;32412;51.478;5.694;2023-04-03T13:06:59;14.90;72.90
46676;DHT22;32412;51.478;5.694;2023-04-03T13:09:29;14.20;74.40
46676;DHT22;32412;51.478;5.694;2023-04-03T13:12:12;14.20;74.60
46676;DHT22;32412;51.478;5.694;2023-04-03T13:14:49;13.90;74.00
46676;DHT22;32412;51.478;5.694;2023-04-03T13:20:39;14.10;72.60
46676;DHT22;32412;51.478;5.694;2023-04-03T13:23:10;13.60;74.10
46676;DHT22;32412;51.478;5.694;2023-04-03T13:25:42;13.50;75.20
46676;DHT22;32412;51.478;5.694;2023-04-03T13:35:27;13.40;74.50
46676;DHT22;32412;51.478;5.694;2023-04-03T13:41:02;12.80;76.20
46676;DHT22;32412;51.478;5.694;2023-04-03T13:43:40;13.10;75.80
46676;DHT22;32412;51.478;5.694;2023-04-03T13:51:28;13.30;76.10
46676;DHT22;32412;51.478;5.694;2023-04-03T13:57:22;14.00;77.40
46676;DHT22;32412;51.478;5.694;2023-04-03T13:59:50;14.50;77.40
46676;DHT22;32412;51.478;5.694;2023-04-03T14:05:18;15.30;75.40
46676;DHT22;32412;51.478;5.694;2023-04-03T14:11:27;15.40;75.70
46676;DHT22;32412;51.478;5.694;2023-04-03T14:14:05;15.50;75.00
46676;DHT22;32412;51.478;5.694;2023-04-03T14:16:46;15.40;74.60
46676;DHT22;32412;51.478;5.694;2023-04-03T14:19:25;14.40;75.70
46676;DHT22;32412;51.478;5.694;2023-04-03T14:22:32;13.70;74.80
46676;DHT22;32412;51.478;5.694;2023-04-03T14:24:56;13.30;78.00
46676;DHT22;32412;51.478;5.694;2023-04-03T14:27:49;12.80;77.80
46676;DHT22;32412;51.478;5.694;2023-04-03T14:30:28;12.60;79.00
46676;DHT22;32412;51.478;5.694;2023-04-03T14:32:55;12.70;78.30
46676;DHT22;32412;51.478;5.694;2023-04-03T14:35:21;12.60;78.40
46676;DHT22;32412;51.478;5.694;2023-04-03T14:37:48;12.20;77.70
46676;DHT22;32412;51.478;5.694;2023-04-03T14:40:22;12.20;79.70
46676;DHT22;32412;51.478;5.694;2023-04-03T14:42:48;12.50;79.80
46676;DHT22;32412;51.478;5.694;2023-04-03T14:45:15;12.90;80.00
46676;DHT22;32412;51.478;5.694;2023-04-03T14:47:47;12.70;80.30
46676;DHT22;32412;51.478;5.694;2023-04-03T14:50:17;11.90;79.10
46676;DHT22;32412;51.478;5.694;2023-04-03T14:52:43;12.00;80.70
46676;DHT22;32412;51.478;5.694;2023-04-03T14:55:12;12.80;82.10
46676;DHT22;32412;51.478;5.694;2023-04-03T14:57:38;13.60;81.10
46676;DHT22;32412;51.478;5.694;2023-04-03T15:00:07;14.30;79.80
46676;DHT22;32412;51.478;5.694;2023-04-03T15:02:36;14.40;78.30
46676;DHT22;32412;51.478;5.694;2023-04-03T15:05:05;14.00;77.90
46676;DHT22;32412;51.478;5.694;2023-04-03T15:07:34;13.30;77.80
46676;DHT22;32412;51.478;5.694;2023-04-03T15:10:25;13.30;78.10
46676;DHT22;32412;51.478;5.694;2023-04-03T15:12:51;13.50;78.40
46676;DHT22;32412;51.478;5.694;2023-04-03T15:15:19;13.20;78.70
46676;DHT22;32412;51.478;5.694;2023-04-03T15:17:46;13.10;79.70
46676;DHT22;32412;51.478;5.694;2023-04-03T15:20:14;12.90;79.70
46676;DHT22;32412;51.478;5.694;2023-04-03T15:22:40;12.80;79.00
46676;DHT22;32412;51.478;5.694;2023-04-03T15:25:06;12.90;79.70
46676;DHT22;32412;51.478;5.694;2023-04-03T15:27:32;13.20;78.70
46676;DHT22;32412;51.478;5.694;2023-04-03T15:29:58;13.40;81.10
46676;DHT22;32412;51.478;5.694;2023-04-03T15:32:24;13.30;79.80
46676;DHT22;32412;51.478;5.694;2023-04-03T15:34:57;13.10;80.80
46676;DHT22;32412;51.478;5.694;2023-04-03T15:37:24;12.90;81.10
46676;DHT22;32412;51.478;5.694;2023-04-03T15:39:49;13.20;80.40
46676;DHT22;32412;51.478;5.694;2023-04-03T18:41:18;7.00;98.10
46676;DHT22;32412;51.478;5.694;2023-04-03T18:43:47;7.00;98.70
46676;DHT22;32412;51.478;5.694;2023-04-03T18:46:12;6.90;98.80
46676;DHT22;32412;51.478;5.694;2023-04-03T18:48:38;6.70;99.10
46676;DHT22;32412;51.478;5.694;2023-04-03T18:51:11;6.70;99.20
46676;DHT22;32412;51.478;5.694;2023-04-03T18:53:37;6.60;99.80
46676;DHT22;32412;51.478;5.694;2023-04-03T18:56:04;6.60;99.80
46676;DHT22;32412;51.478;5.694;2023-04-03T18:58:30;6.60;99.90
46676;DHT22;32412;51.478;5.694;2023-04-03T19:00:57;6.50;99.90
46676;DHT22;32412;51.478;5.694;2023-04-03T19:03:23;6.40;99.90
46676;DHT22;32412;51.478;5.694;2023-04-03T19:05:50;6.40;99.90
46676;DHT22;32412;51.478;5.694;2023-04-03T19:08:16;6.40;99.90
46676;DHT22;32412;51.478;5.694;2023-04-03T19:10:42;6.30;99.90
46676;DHT22;32412;51.478;5.694;2023-04-03T19:13:08;6.30;99.90
46676;DHT22;32412;51.478;5.694;2023-04-03T19:15:35;6.20;99.90
46676;DHT22;32412;51.478;5.694;2023-04-03T19:21:25;6.10;99.90
46676;DHT22;32412;51.478;5.694;2023-04-03T19:23:50;6.10;99.90
46676;DHT22;32412;51.478;5.694;2023-04-03T19:26:41;6.00;99.90
46676;DHT22;32412;51.478;5.694;2023-04-03T19:29:07;5.90;99.90
46676;DHT22;32412;51.478;5.694;2023-04-03T19:31:34;5.90;99.90
46676;DHT22;32412;51.478;5.694;2023-04-03T19:34:02;5.80;99.90
46676;DHT22;32412;51.478;5.694;2023-04-03T19:36:29;5.70;99.90
46676;DHT22;32412;51.478;5.694;2023-04-03T19:38:56;5.60;99.90
46676;DHT22;32412;51.478;5.694;2023-04-03T19:41:38;5.60;99.90
46676;DHT22;32412;51.478;5.694;2023-04-03T19:44:08;5.60;99.90
46676;DHT22;32412;51.478;5.694;2023-04-03T19:50:17;5.50;99.90
46676;DHT22;32412;51.478;5.694;2023-04-03T19:55:28;5.30;99.90
46676;DHT22;32412;51.478;5.694;2023-04-03T20:14:58;5.00;99.90
46676;DHT22;32412;51.478;5.694;2023-04-03T20:17:29;5.00;99.90
